createdAt,value
2019-01-17T00:02:33.813Z,3.70
2019-01-17T00:05:52.146Z,6.23
2019-01-17T00:09:10.281Z,5.30
2019-01-17T00:12:27.993Z,5.83
2019-01-17T00:15:34.546Z,4.40
2019-01-17T00:18:42.099Z,5.50
2019-01-17T00:21:46.347Z,4.93
2019-01-17T00:24:51.246Z,4.30
2019-01-17T00:28:03.537Z,4.40
2019-01-17T00:31:24.330Z,9.10
2019-01-17T00:34:33.272Z,8.40
2019-01-17T00:37:29.530Z,11.53
2019-01-17T00:40:33.339Z,6.77
2019-01-17T00:43:38.352Z,13.60
2019-01-17T00:46:47.503Z,16.57
2019-01-17T00:49:44.943Z,6.10
2019-01-17T00:52:54.568Z,8.63
2019-01-17T00:56:06.953Z,8.40
2019-01-17T00:59:06.258Z,4.97
2019-01-17T01:02:30.752Z,3.83
2019-01-17T01:05:35.494Z,5.00
2019-01-17T01:08:35.293Z,6.90
2019-01-17T01:11:35.856Z,6.13
2019-01-17T01:14:57.996Z,5.27
2019-01-17T01:18:13.128Z,4.23
2019-01-17T01:21:19.121Z,4.00
2019-01-17T01:24:23.744Z,4.67
2019-01-17T01:27:35.892Z,7.17
2019-01-17T01:30:53.748Z,5.07
2019-01-17T01:33:53.271Z,5.57
2019-01-17T01:37:14.698Z,8.00
2019-01-17T01:40:15.577Z,6.53
2019-01-17T01:43:36.039Z,6.13
2019-01-17T01:46:40.968Z,4.50
2019-01-17T01:49:50.054Z,3.97
2019-01-17T01:52:58.145Z,4.07
2019-01-17T01:55:45.460Z,5.10
2019-01-17T01:58:32.622Z,8.97
2019-01-17T02:01:19.847Z,9.40
2019-01-17T02:04:07.158Z,7.20
2019-01-17T02:06:54.275Z,8.27
2019-01-17T02:09:40.997Z,4.87
2019-01-17T02:12:28.274Z,6.10
2019-01-17T02:15:15.704Z,5.00
2019-01-17T02:18:02.399Z,5.13
2019-01-17T02:20:49.732Z,5.90
2019-01-17T02:23:36.886Z,6.57
2019-01-17T02:26:23.993Z,5.47
2019-01-17T02:29:11.334Z,5.20
2019-01-17T02:31:58.315Z,3.33
2019-01-17T02:34:45.734Z,8.23
2019-01-17T02:37:32.937Z,6.70
2019-01-17T02:40:19.898Z,5.90
2019-01-17T02:43:07.280Z,4.30
2019-01-17T02:45:54.106Z,2.80
2019-01-17T02:48:41.101Z,3.90
2019-01-17T02:51:28.181Z,9.90
2019-01-17T02:54:15.417Z,5.20
2019-01-17T02:57:02.317Z,5.53
2019-01-17T02:59:49.611Z,2.60
2019-01-17T03:02:36.484Z,5.37
2019-01-17T03:05:23.374Z,6.17
2019-01-17T03:08:10.702Z,5.40
2019-01-17T03:10:57.884Z,3.50
2019-01-17T03:13:45.029Z,4.90
2019-01-17T03:16:32.103Z,5.80
2019-01-17T03:19:19.000Z,8.30
2019-01-17T03:22:06.052Z,6.00
2019-01-17T03:24:52.817Z,7.20
2019-01-17T03:27:39.704Z,4.90
2019-01-17T03:30:26.719Z,4.40
2019-01-17T03:33:13.901Z,10.10
2019-01-17T03:36:00.785Z,7.80
2019-01-17T03:38:47.970Z,5.33
2019-01-17T03:41:35.125Z,8.43
2019-01-17T03:44:22.014Z,12.03
2019-01-17T03:47:09.445Z,10.93
2019-01-17T03:49:56.453Z,32.90
2019-01-17T03:52:43.588Z,13.20
2019-01-17T03:55:31.181Z,9.47
2019-01-17T03:58:18.323Z,13.27
2019-01-17T04:01:05.359Z,7.77
2019-01-17T04:03:53.225Z,8.20
2019-01-17T04:06:40.384Z,18.73
2019-01-17T04:09:27.362Z,11.93
2019-01-17T04:12:14.484Z,11.07
2019-01-17T04:15:01.762Z,8.60
2019-01-17T04:17:48.851Z,10.47
2019-01-17T04:20:35.989Z,13.50
2019-01-17T04:23:23.314Z,9.57
2019-01-17T04:26:10.584Z,8.73
2019-01-17T04:28:57.649Z,7.87
2019-01-17T04:31:44.775Z,9.33
2019-01-17T04:34:31.912Z,17.67
2019-01-17T04:37:19.022Z,6.93
2019-01-17T04:40:06.615Z,9.90
2019-01-17T04:42:53.461Z,10.57
2019-01-17T04:45:40.866Z,13.07
2019-01-17T04:48:28.178Z,11.20
2019-01-17T04:51:15.614Z,9.40
2019-01-17T04:54:02.829Z,9.63
2019-01-17T04:56:50.532Z,12.10
2019-01-17T04:59:37.766Z,13.93
2019-01-17T05:02:25.104Z,11.80
2019-01-17T05:05:12.051Z,7.07
2019-01-17T05:07:59.346Z,8.53
2019-01-17T05:10:46.539Z,10.60
2019-01-17T05:13:33.846Z,14.00
2019-01-17T05:16:20.854Z,20.27
2019-01-17T05:19:07.671Z,19.20
2019-01-17T05:21:54.778Z,16.53
2019-01-17T05:24:41.997Z,9.40
2019-01-17T05:27:29.308Z,8.33
2019-01-17T05:30:16.925Z,9.20
2019-01-17T05:33:04.389Z,9.00
2019-01-17T05:35:51.630Z,14.27
2019-01-17T05:38:39.362Z,18.57
2019-01-17T05:41:26.750Z,9.60
2019-01-17T05:44:14.518Z,11.90
2019-01-17T05:47:01.538Z,5.70
2019-01-17T05:49:49.239Z,9.30
2019-01-17T05:52:36.578Z,14.03
2019-01-17T05:55:23.513Z,12.97
2019-01-17T05:58:10.573Z,8.80
2019-01-17T06:00:57.825Z,12.80
2019-01-17T06:03:45.307Z,20.77
2019-01-17T06:06:33.161Z,12.47
2019-01-17T06:09:20.153Z,15.20
2019-01-17T06:12:07.551Z,11.60
2019-01-17T06:14:54.840Z,14.47
2019-01-17T06:17:42.279Z,12.73
2019-01-17T06:20:29.730Z,10.87
2019-01-17T06:23:17.287Z,10.20
2019-01-17T06:26:04.407Z,12.57
2019-01-17T06:28:51.785Z,13.30
2019-01-17T06:31:39.053Z,14.13
2019-01-17T06:34:26.261Z,14.97
2019-01-17T06:37:13.675Z,11.33
2019-01-17T06:40:00.893Z,16.97
2019-01-17T06:42:48.306Z,18.70
2019-01-17T06:45:36.103Z,12.60
2019-01-17T06:48:23.240Z,13.70
2019-01-17T06:51:10.033Z,10.53
2019-01-17T06:53:57.230Z,14.53
2019-01-17T06:56:45.220Z,18.13
2019-01-17T06:59:31.960Z,12.53
2019-01-17T07:02:20.454Z,13.80
2019-01-17T07:05:08.214Z,9.47
2019-01-17T07:07:57.054Z,12.50
2019-01-17T07:10:53.580Z,7.40
2019-01-17T07:13:41.257Z,14.17
2019-01-17T07:16:28.868Z,15.27
2019-01-17T07:40:09.957Z,9.07
2019-01-17T07:42:57.358Z,16.97
2019-01-17T07:45:45.476Z,14.40
2019-01-17T08:28:59.594Z,13.67
2019-01-17T08:31:49.907Z,19.03
2019-01-17T08:34:37.502Z,10.87
2019-01-17T08:37:24.417Z,13.43
2019-01-17T08:40:46.212Z,8.13
2019-01-17T14:21:12.395Z,5.07
2019-01-17T14:24:00.061Z,3.93
2019-01-17T14:27:07.231Z,2.70
2019-01-17T15:54:54.533Z,4.77
2019-01-17T15:57:41.481Z,10.10
2019-01-17T16:00:29.365Z,4.63
2019-01-17T16:03:16.852Z,14.73
2019-01-17T16:06:03.508Z,5.63
2019-01-17T16:08:50.972Z,3.20
2019-01-17T16:11:56.209Z,6.30
2019-01-17T16:14:43.495Z,6.87
2019-01-17T16:17:30.858Z,2.23
2019-01-17T20:36:50.525Z,1.77
2019-01-17T20:39:38.947Z,6.07
2019-01-17T20:42:27.813Z,6.20
2019-01-17T20:45:15.089Z,6.27
2019-01-17T20:48:03.329Z,2.80
2019-01-17T20:50:51.389Z,3.07
2019-01-17T20:53:38.851Z,3.20
2019-01-17T20:56:26.342Z,3.57
2019-01-17T20:59:13.601Z,6.00
2019-01-17T21:02:03.368Z,4.40
2019-01-17T21:04:55.762Z,4.20
2019-01-17T21:07:47.713Z,3.47
2019-01-17T21:10:34.860Z,8.73
2019-01-17T21:13:22.107Z,8.50
2019-01-17T21:16:10.802Z,4.00
2019-01-17T21:18:58.043Z,6.50
2019-01-17T21:21:45.382Z,4.83
2019-01-17T21:24:32.602Z,5.47
2019-01-17T21:27:20.213Z,9.03
2019-01-17T21:30:09.065Z,2.90
2019-01-17T21:32:56.866Z,4.80
2019-01-17T21:35:45.130Z,4.93
2019-01-17T21:38:32.310Z,6.00
2019-01-17T21:41:19.377Z,4.37
2019-01-17T21:44:06.637Z,3.77
2019-01-17T21:46:54.130Z,13.10
2019-01-17T21:49:40.869Z,9.13
2019-01-17T21:53:02.860Z,5.10
2019-01-17T21:55:49.294Z,3.13
2019-01-17T21:58:37.328Z,9.63
2019-01-17T22:01:24.450Z,14.23
2019-01-17T22:04:12.189Z,3.90
2019-01-17T22:06:59.117Z,14.03
2019-01-17T22:09:47.979Z,4.10
2019-01-17T22:12:35.547Z,3.27
2019-01-17T22:15:23.599Z,2.33
2019-01-17T22:18:10.726Z,2.13
2019-01-17T22:20:58.345Z,4.33
2019-01-17T22:23:45.546Z,2.43
2019-01-17T22:26:32.954Z,3.57
2019-01-17T22:29:34.085Z,2.53
2019-01-17T22:32:21.438Z,1.73
2019-01-17T22:35:08.526Z,3.00
2019-01-17T22:37:57.020Z,2.40
2019-01-17T22:40:44.560Z,2.37
2019-01-17T22:43:31.740Z,3.27
2019-01-17T22:46:18.858Z,1.67
2019-01-17T22:49:06.191Z,4.63
2019-01-17T22:51:55.653Z,3.43
2019-01-17T22:54:45.251Z,3.43
2019-01-17T22:57:32.272Z,3.53
2019-01-17T23:00:22.369Z,2.50
2019-01-17T23:03:10.126Z,3.50
2019-01-17T23:05:57.599Z,3.20
2019-01-17T23:08:45.127Z,3.07
2019-01-17T23:11:32.442Z,3.10
2019-01-17T23:14:19.742Z,1.97
2019-01-17T23:17:07.536Z,1.50
2019-01-17T23:19:54.562Z,1.37
2019-01-17T23:22:41.599Z,2.13
2019-01-17T23:25:29.394Z,3.00
2019-01-17T23:28:16.424Z,2.27
2019-01-17T23:31:03.200Z,2.47
2019-01-17T23:33:50.785Z,4.67
2019-01-17T23:36:38.180Z,3.03
2019-01-17T23:39:25.257Z,2.03
2019-01-17T23:42:12.530Z,2.10
2019-01-17T23:44:59.431Z,1.90
2019-01-17T23:47:46.878Z,6.43
2019-01-17T23:50:34.346Z,2.80
2019-01-17T23:53:21.844Z,12.53
2019-01-17T23:56:08.633Z,2.30
2019-01-17T23:58:56.160Z,4.33
